createdAt,value
2022-07-26T00:00:57.012Z,63.52
2022-07-26T00:06:03.445Z,65.21
2022-07-26T00:16:18.823Z,65.33
2022-07-26T00:21:26.203Z,65.71
2022-07-26T00:26:33.270Z,61.7
2022-07-26T00:31:42.423Z,56.94
2022-07-26T01:12:44.423Z,76.26
2022-07-26T01:17:52.296Z,77.61
2022-07-26T03:07:09.774Z,95.75
2022-07-26T04:13:52.660Z,96.12
2022-07-26T04:18:59.455Z,96.07
2022-07-26T04:24:09.128Z,96.18
2022-07-26T04:29:17.282Z,96.23
2022-07-26T04:39:33.908Z,96.29001
2022-07-26T04:44:41.780Z,96.33
2022-07-26T04:54:56.820Z,96.54
2022-07-26T05:00:05.588Z,96.55001
2022-07-26T05:05:13.543Z,96.75
2022-07-26T05:10:22.004Z,96.8
2022-07-26T05:15:29.544Z,96.81
2022-07-26T05:20:37.877Z,96.65
2022-07-26T05:25:45.218Z,96.58
2022-07-26T05:30:54.035Z,96.82
2022-07-26T05:36:01.921Z,96.92
2022-07-26T05:41:09.381Z,97.0
2022-07-26T05:46:17.242Z,96.98001
2022-07-26T05:51:23.815Z,96.81
2022-07-26T06:01:39.234Z,96.54
2022-07-26T06:06:48.248Z,96.36001
2022-07-26T06:22:12.345Z,96.41001
2022-07-26T06:27:19.944Z,96.54
2022-07-26T06:52:58.864Z,96.86
2022-07-26T07:03:14.317Z,97.44
2022-07-26T07:13:29.801Z,97.16001
2022-07-26T07:18:39.673Z,97.23001
2022-07-26T07:23:46.859Z,97.0
2022-07-26T07:28:54.426Z,96.94
2022-07-26T07:34:01.274Z,97.48
2022-07-26T07:44:17.048Z,97.24
2022-07-26T07:49:24.374Z,97.1
2022-07-26T08:04:48.107Z,97.16001
2022-07-26T08:09:57.186Z,96.94
2022-07-26T08:20:11.954Z,97.42
2022-07-26T08:45:50.220Z,96.53
2022-07-26T08:50:58.177Z,96.01001
2022-07-26T09:01:14.653Z,96.08001
2022-07-26T09:32:00.627Z,97.02
2022-07-26T09:37:07.949Z,97.1
2022-07-26T09:47:23.151Z,96.17
2022-07-26T09:52:31.346Z,96.48001
2022-07-26T09:57:45.083Z,95.24
2022-07-26T10:23:25.107Z,72.49
2022-07-26T10:38:46.223Z,78.19
2022-07-26T10:43:53.927Z,75.74
2022-07-26T10:54:08.806Z,74.89
2022-07-26T10:59:16.084Z,75.05001
2022-07-26T11:19:46.620Z,71.13
2022-07-26T11:45:26.055Z,65.11
2022-07-26T12:26:35.055Z,96.46
2022-07-26T12:41:59.823Z,96.51
2022-07-26T12:47:07.842Z,96.23
2022-07-26T12:52:15.480Z,96.6
2022-07-26T12:57:23.844Z,95.56
2022-07-26T13:02:31.321Z,96.75
2022-07-26T13:07:38.491Z,98.02
2022-07-26T13:12:48.054Z,98.1
2022-07-26T13:17:56.508Z,98.74
2022-07-26T13:23:05.743Z,98.36
2022-07-26T13:28:13.454Z,97.74
2022-07-26T13:33:20.911Z,97.85
2022-07-26T13:38:28.117Z,97.86
2022-07-26T13:48:42.503Z,96.11
2022-07-26T13:53:49.875Z,96.01001
2022-07-26T16:07:12.257Z,99.00001
2022-07-26T16:12:21.288Z,98.48001
2022-07-26T16:17:29.238Z,98.52
2022-07-26T16:25:41.152Z,98.66
2022-07-26T16:30:46.712Z,98.43
2022-07-26T16:35:53.861Z,98.4
2022-07-26T16:41:00.667Z,98.54
2022-07-26T16:46:08.308Z,98.63
2022-07-26T16:51:16.381Z,98.76
2022-07-26T16:56:24.425Z,98.9
2022-07-26T17:01:32.364Z,98.91001
2022-07-26T17:06:39.608Z,98.84
2022-07-26T17:11:47.146Z,98.79001
2022-07-26T17:16:55.177Z,98.73
2022-07-26T17:22:03.356Z,98.73
2022-07-26T17:27:11.329Z,98.88
2022-07-26T17:32:19.089Z,99.01
2022-07-26T17:37:27.678Z,99.00001
2022-07-26T17:42:35.780Z,98.86001
2022-07-26T17:47:43.633Z,98.81
2022-07-26T17:52:51.594Z,98.83
2022-07-26T17:57:59.431Z,98.73
2022-07-26T18:03:06.877Z,98.65001
2022-07-26T18:08:14.458Z,98.63
2022-07-26T18:13:22.118Z,98.65001
2022-07-26T18:18:29.757Z,98.67
2022-07-26T18:23:37.266Z,98.66
2022-07-26T18:28:45.058Z,98.67
2022-07-26T18:33:53.195Z,98.94
2022-07-26T18:39:01.437Z,98.88
2022-07-26T18:44:08.633Z,98.68
2022-07-26T18:49:17.610Z,98.56
2022-07-26T18:54:26.703Z,98.78
2022-07-26T18:59:35.669Z,98.94
2022-07-26T19:04:42.549Z,98.93001
2022-07-26T19:09:50.239Z,98.8
2022-07-26T19:14:58.456Z,98.89
2022-07-26T19:20:06.178Z,98.87
2022-07-26T19:25:13.442Z,98.95
2022-07-26T19:30:20.440Z,98.98001
2022-07-26T19:35:28.571Z,98.94
2022-07-26T19:40:36.749Z,98.97
2022-07-26T19:45:45.269Z,99.04
2022-07-26T19:50:53.581Z,99.00001
2022-07-26T19:56:01.108Z,99.05001
2022-07-26T20:01:08.102Z,99.01999
2022-07-26T20:06:22.217Z,98.96
2022-07-26T20:11:30.183Z,99.04
2022-07-26T20:16:36.729Z,99.08
2022-07-26T20:21:44.395Z,99.01
2022-07-26T20:26:50.502Z,98.95
2022-07-26T20:31:59.064Z,98.93001
2022-07-26T20:37:06.810Z,98.95
2022-07-26T20:42:15.143Z,98.88
2022-07-26T20:47:23.267Z,98.82
2022-07-26T20:52:31.419Z,98.88
2022-07-26T20:57:38.176Z,98.89
2022-07-26T21:02:46.338Z,99.00001
2022-07-26T21:07:53.858Z,98.96
2022-07-26T21:13:01.078Z,98.92
2022-07-26T21:18:08.824Z,99.05001
2022-07-26T21:28:23.454Z,99.13
2022-07-26T21:33:31.376Z,99.24
2022-07-26T21:38:39.033Z,99.44
2022-07-26T21:43:47.985Z,99.32
2022-07-26T21:48:56.070Z,99.24
2022-07-26T21:59:10.417Z,99.18
2022-07-26T22:09:26.015Z,99.18
2022-07-26T22:14:33.865Z,99.16
2022-07-26T22:19:41.742Z,99.14001
2022-07-26T22:24:49.716Z,99.15
2022-07-26T22:29:57.264Z,99.21
2022-07-26T22:35:05.258Z,99.2
2022-07-26T22:40:13.241Z,99.22
2022-07-26T22:45:22.190Z,99.29
2022-07-26T22:50:30.057Z,99.3
2022-07-26T22:55:37.664Z,99.32
2022-07-26T23:00:45.545Z,99.37
2022-07-26T23:11:00.104Z,99.37
2022-07-26T23:16:06.699Z,99.35
2022-07-26T23:21:15.422Z,99.40001
2022-07-26T23:26:22.976Z,99.43
2022-07-26T23:31:31.222Z,99.53
2022-07-26T23:36:39.398Z,99.57
2022-07-26T23:41:46.530Z,99.49
2022-07-26T23:46:54.866Z,99.44
2022-07-26T23:52:02.135Z,99.41001
2022-07-26T23:57:09.755Z,99.42
